Marshall, California
Current Conditions -  °F | °C
As of 8:35 AM on Saturday 22 Nov 2014 (Local Time) from KO69 Reporting Station
Broken Clouds Broken Clouds  
Wind Chill: 63°   Ceiling: 600
Heat Index: 63°   Visibility: 2mi
Dew Point: 63°   Wind: 14mph
Humidity: 100%   Direction: 270°W
Pressure: 30.05"   Gusts: 22mph
Location:  38.16°N, 122.89°W
Report Text: KO69 221635Z AUTO 27012G19KT 2SM BKN006 17/17 A3005 RMK AO1 P0001
Loading
Personal Weather Stations






























Interactive Weather Map New forecast layout! Learn more

10-Day Weather Forecast

Advertisements
Track Severe Weather on mobile